sensor_id;sensor_type;location;lat;lon;timestamp;temperature;humidity
27741;DHT22;15134;48.768;9.184;2023-05-10T00:00:35;15.90;99.90
27741;DHT22;15134;48.768;9.184;2023-05-10T00:03:00;16.00;99.90
27741;DHT22;15134;48.768;9.184;2023-05-10T00:05:26;16.00;99.90
27741;DHT22;15134;48.768;9.184;2023-05-10T00:07:52;16.00;99.90
27741;DHT22;15134;48.768;9.184;2023-05-10T00:10:18;16.00;99.90
27741;DHT22;15134;48.768;9.184;2023-05-10T00:12:46;16.00;99.90
27741;DHT22;15134;48.768;9.184;2023-05-10T00:15:12;16.00;99.90
27741;DHT22;15134;48.768;9.184;2023-05-10T00:17:38;16.00;99.90
27741;DHT22;15134;48.768;9.184;2023-05-10T00:20:05;16.00;99.90
27741;DHT22;15134;48.768;9.184;2023-05-10T00:22:31;16.00;99.90
27741;DHT22;15134;48.768;9.184;2023-05-10T00:24:57;16.00;99.90
27741;DHT22;15134;48.768;9.184;2023-05-10T00:27:25;15.90;99.90
27741;DHT22;15134;48.768;9.184;2023-05-10T00:29:50;15.90;99.90
27741;DHT22;15134;48.768;9.184;2023-05-10T00:32:16;15.90;99.90
27741;DHT22;15134;48.768;9.184;2023-05-10T00:34:42;15.80;99.90
27741;DHT22;15134;48.768;9.184;2023-05-10T00:37:09;15.90;99.90
27741;DHT22;15134;48.768;9.184;2023-05-10T00:39:34;15.90;99.90
27741;DHT22;15134;48.768;9.184;2023-05-10T00:42:00;15.80;99.90
27741;DHT22;15134;48.768;9.184;2023-05-10T00:44:26;15.80;99.90
27741;DHT22;15134;48.768;9.184;2023-05-10T00:46:57;15.80;99.90
27741;DHT22;15134;48.768;9.184;2023-05-10T00:49:23;15.80;99.90
27741;DHT22;15134;48.768;9.184;2023-05-10T00:51:49;15.70;99.90
27741;DHT22;15134;48.768;9.184;2023-05-10T00:54:16;15.70;99.90
27741;DHT22;15134;48.768;9.184;2023-05-10T00:56:41;15.70;99.90
27741;DHT22;15134;48.768;9.184;2023-05-10T00:59:09;15.70;99.90
27741;DHT22;15134;48.768;9.184;2023-05-10T01:01:35;15.70;99.90
27741;DHT22;15134;48.768;9.184;2023-05-10T01:04:02;15.70;99.90
27741;DHT22;15134;48.768;9.184;2023-05-10T01:06:28;15.60;99.90
27741;DHT22;15134;48.768;9.184;2023-05-10T01:12:50;15.60;99.90
27741;DHT22;15134;48.768;9.184;2023-05-10T01:15:20;15.60;99.90
27741;DHT22;15134;48.768;9.184;2023-05-10T01:17:49;15.60;99.90
27741;DHT22;15134;48.768;9.184;2023-05-10T01:20:15;15.60;99.90
27741;DHT22;15134;48.768;9.184;2023-05-10T01:23:04;15.60;99.90
27741;DHT22;15134;48.768;9.184;2023-05-10T01:28:52;15.50;99.90
27741;DHT22;15134;48.768;9.184;2023-05-10T01:34:19;15.50;99.90
27741;DHT22;15134;48.768;9.184;2023-05-10T01:37:10;15.60;99.90
27741;DHT22;15134;48.768;9.184;2023-05-10T01:39:43;15.50;99.90
27741;DHT22;15134;48.768;9.184;2023-05-10T01:42:14;15.50;99.90
27741;DHT22;15134;48.768;9.184;2023-05-10T01:49:54;15.50;99.90
27741;DHT22;15134;48.768;9.184;2023-05-10T01:52:28;15.50;99.90
27741;DHT22;15134;48.768;9.184;2023-05-10T01:55:05;15.40;99.90
27741;DHT22;15134;48.768;9.184;2023-05-10T01:57:39;15.30;99.90
27741;DHT22;15134;48.768;9.184;2023-05-10T02:00:08;15.30;99.90
27741;DHT22;15134;48.768;9.184;2023-05-10T02:02:45;15.30;99.90
27741;DHT22;15134;48.768;9.184;2023-05-10T02:05:13;15.30;99.90
27741;DHT22;15134;48.768;9.184;2023-05-10T02:07:47;15.30;99.90
27741;DHT22;15134;48.768;9.184;2023-05-10T02:10:20;15.30;99.90
27741;DHT22;15134;48.768;9.184;2023-05-10T02:12:47;15.30;99.90
27741;DHT22;15134;48.768;9.184;2023-05-10T02:15:18;15.20;99.90
27741;DHT22;15134;48.768;9.184;2023-05-10T02:17:46;15.20;99.90
27741;DHT22;15134;48.768;9.184;2023-05-10T02:20:12;15.20;99.90
27741;DHT22;15134;48.768;9.184;2023-05-10T02:22:39;15.10;99.90
27741;DHT22;15134;48.768;9.184;2023-05-10T02:25:06;15.10;99.90
27741;DHT22;15134;48.768;9.184;2023-05-10T02:27:33;15.10;99.90
27741;DHT22;15134;48.768;9.184;2023-05-10T02:30:00;15.10;99.90
27741;DHT22;15134;48.768;9.184;2023-05-10T02:32:27;15.10;99.90
27741;DHT22;15134;48.768;9.184;2023-05-10T02:34:53;15.10;99.90
27741;DHT22;15134;48.768;9.184;2023-05-10T02:37:22;15.10;99.90
27741;DHT22;15134;48.768;9.184;2023-05-10T02:39:49;15.10;99.90
27741;DHT22;15134;48.768;9.184;2023-05-10T02:42:18;15.10;99.90
27741;DHT22;15134;48.768;9.184;2023-05-10T02:44:48;15.10;99.90
27741;DHT22;15134;48.768;9.184;2023-05-10T02:47:18;15.20;99.90
27741;DHT22;15134;48.768;9.184;2023-05-10T02:49:44;15.20;99.90
27741;DHT22;15134;48.768;9.184;2023-05-10T02:52:16;15.20;99.90
27741;DHT22;15134;48.768;9.184;2023-05-10T02:54:49;15.20;99.90
27741;DHT22;15134;48.768;9.184;2023-05-10T02:57:17;15.20;99.90
27741;DHT22;15134;48.768;9.184;2023-05-10T02:59:46;15.20;99.90
27741;DHT22;15134;48.768;9.184;2023-05-10T03:02:15;15.20;99.90
27741;DHT22;15134;48.768;9.184;2023-05-10T03:04:40;15.20;99.90
27741;DHT22;15134;48.768;9.184;2023-05-10T03:07:07;15.20;99.90
27741;DHT22;15134;48.768;9.184;2023-05-10T03:09:34;15.20;99.90
27741;DHT22;15134;48.768;9.184;2023-05-10T03:12:14;15.20;99.90
27741;DHT22;15134;48.768;9.184;2023-05-10T03:14:53;15.20;99.90
27741;DHT22;15134;48.768;9.184;2023-05-10T03:18:13;15.20;99.90
27741;DHT22;15134;48.768;9.184;2023-05-10T03:20:19;15.20;99.90
27741;DHT22;15134;48.768;9.184;2023-05-10T03:23:00;15.30;99.90
27741;DHT22;15134;48.768;9.184;2023-05-10T03:25:29;15.20;99.90
27741;DHT22;15134;48.768;9.184;2023-05-10T03:27:58;15.20;99.90
27741;DHT22;15134;48.768;9.184;2023-05-10T03:30:25;15.20;99.90
27741;DHT22;15134;48.768;9.184;2023-05-10T03:32:51;15.20;99.90
27741;DHT22;15134;48.768;9.184;2023-05-10T03:35:17;15.20;99.90
27741;DHT22;15134;48.768;9.184;2023-05-10T03:37:45;15.20;99.90
27741;DHT22;15134;48.768;9.184;2023-05-10T03:40:11;15.10;99.90
27741;DHT22;15134;48.768;9.184;2023-05-10T03:42:41;15.20;99.90
27741;DHT22;15134;48.768;9.184;2023-05-10T03:45:08;15.20;99.90
27741;DHT22;15134;48.768;9.184;2023-05-10T03:47:34;15.20;99.90
27741;DHT22;15134;48.768;9.184;2023-05-10T03:50:00;15.20;99.90
27741;DHT22;15134;48.768;9.184;2023-05-10T03:52:27;15.10;99.90
27741;DHT22;15134;48.768;9.184;2023-05-10T03:54:53;15.20;99.90
27741;DHT22;15134;48.768;9.184;2023-05-10T03:57:21;15.20;99.90
27741;DHT22;15134;48.768;9.184;2023-05-10T03:59:47;15.20;99.90
27741;DHT22;15134;48.768;9.184;2023-05-10T04:02:13;15.10;99.90
27741;DHT22;15134;48.768;9.184;2023-05-10T04:04:38;15.10;99.90
27741;DHT22;15134;48.768;9.184;2023-05-10T04:07:04;15.10;99.90
27741;DHT22;15134;48.768;9.184;2023-05-10T04:09:30;15.10;99.90
27741;DHT22;15134;48.768;9.184;2023-05-10T04:11:56;15.00;99.90
27741;DHT22;15134;48.768;9.184;2023-05-10T04:14:21;15.00;99.90
27741;DHT22;15134;48.768;9.184;2023-05-10T04:16:47;15.00;99.90
27741;DHT22;15134;48.768;9.184;2023-05-10T04:19:14;14.90;99.90
27741;DHT22;15134;48.768;9.184;2023-05-10T04:21:42;14.80;99.90
27741;DHT22;15134;48.768;9.184;2023-05-10T04:24:08;14.90;99.90
27741;DHT22;15134;48.768;9.184;2023-05-10T04:26:33;14.90;99.90
27741;DHT22;15134;48.768;9.184;2023-05-10T04:28:59;14.90;99.90
27741;DHT22;15134;48.768;9.184;2023-05-10T04:31:25;14.90;99.90
27741;DHT22;15134;48.768;9.184;2023-05-10T04:33:55;14.90;99.90
27741;DHT22;15134;48.768;9.184;2023-05-10T04:36:20;14.90;99.90
27741;DHT22;15134;48.768;9.184;2023-05-10T04:38:46;14.90;99.90
27741;DHT22;15134;48.768;9.184;2023-05-10T04:41:12;14.90;99.90
27741;DHT22;15134;48.768;9.184;2023-05-10T04:43:38;14.90;99.90
27741;DHT22;15134;48.768;9.184;2023-05-10T04:46:06;14.90;99.90
27741;DHT22;15134;48.768;9.184;2023-05-10T04:48:32;14.90;99.90
27741;DHT22;15134;48.768;9.184;2023-05-10T04:50:58;14.90;99.90
27741;DHT22;15134;48.768;9.184;2023-05-10T04:53:24;15.00;99.90
27741;DHT22;15134;48.768;9.184;2023-05-10T04:55:50;15.10;99.90
27741;DHT22;15134;48.768;9.184;2023-05-10T04:58:17;15.00;99.90
27741;DHT22;15134;48.768;9.184;2023-05-10T05:00:43;15.00;99.90
27741;DHT22;15134;48.768;9.184;2023-05-10T05:03:09;15.00;99.90
27741;DHT22;15134;48.768;9.184;2023-05-10T05:05:35;15.00;99.90
27741;DHT22;15134;48.768;9.184;2023-05-10T05:08:01;15.10;99.90
27741;DHT22;15134;48.768;9.184;2023-05-10T05:10:26;15.20;99.90
27741;DHT22;15134;48.768;9.184;2023-05-10T05:12:53;15.30;99.90
27741;DHT22;15134;48.768;9.184;2023-05-10T05:15:21;15.40;99.90
27741;DHT22;15134;48.768;9.184;2023-05-10T05:17:49;15.40;99.90
27741;DHT22;15134;48.768;9.184;2023-05-10T05:20:17;15.50;99.90
27741;DHT22;15134;48.768;9.184;2023-05-10T05:22:44;15.60;99.90
27741;DHT22;15134;48.768;9.184;2023-05-10T05:25:10;15.60;99.90
27741;DHT22;15134;48.768;9.184;2023-05-10T05:27:37;15.60;99.90
27741;DHT22;15134;48.768;9.184;2023-05-10T05:30:03;15.60;99.90
27741;DHT22;15134;48.768;9.184;2023-05-10T05:32:29;15.60;99.90
27741;DHT22;15134;48.768;9.184;2023-05-10T05:34:56;15.60;99.90
27741;DHT22;15134;48.768;9.184;2023-05-10T05:37:22;15.60;99.90
27741;DHT22;15134;48.768;9.184;2023-05-10T05:39:48;15.70;99.90
27741;DHT22;15134;48.768;9.184;2023-05-10T05:42:14;15.80;99.90
27741;DHT22;15134;48.768;9.184;2023-05-10T05:44:41;15.90;99.90
27741;DHT22;15134;48.768;9.184;2023-05-10T05:47:07;16.00;99.90
27741;DHT22;15134;48.768;9.184;2023-05-10T05:49:33;16.00;99.90
27741;DHT22;15134;48.768;9.184;2023-05-10T05:52:00;15.90;99.90
27741;DHT22;15134;48.768;9.184;2023-05-10T05:54:26;16.00;99.90
27741;DHT22;15134;48.768;9.184;2023-05-10T05:56:56;16.00;99.90
27741;DHT22;15134;48.768;9.184;2023-05-10T05:59:22;16.00;99.90
27741;DHT22;15134;48.768;9.184;2023-05-10T06:01:48;16.00;99.90
27741;DHT22;15134;48.768;9.184;2023-05-10T06:04:14;16.00;99.90
27741;DHT22;15134;48.768;9.184;2023-05-10T06:06:39;16.00;99.90
27741;DHT22;15134;48.768;9.184;2023-05-10T06:09:11;16.00;99.90
27741;DHT22;15134;48.768;9.184;2023-05-10T06:11:37;16.10;99.90
27741;DHT22;15134;48.768;9.184;2023-05-10T06:14:04;16.10;99.90
27741;DHT22;15134;48.768;9.184;2023-05-10T06:16:30;16.10;99.90
27741;DHT22;15134;48.768;9.184;2023-05-10T06:18:56;16.20;99.90
27741;DHT22;15134;48.768;9.184;2023-05-10T06:21:22;16.20;99.90
27741;DHT22;15134;48.768;9.184;2023-05-10T06:23:51;16.30;99.90
27741;DHT22;15134;48.768;9.184;2023-05-10T06:26:16;16.30;99.90
27741;DHT22;15134;48.768;9.184;2023-05-10T06:28:42;16.20;99.90
27741;DHT22;15134;48.768;9.184;2023-05-10T06:31:08;16.20;99.90
27741;DHT22;15134;48.768;9.184;2023-05-10T06:33:34;16.30;99.90
27741;DHT22;15134;48.768;9.184;2023-05-10T06:36:00;16.30;99.90
27741;DHT22;15134;48.768;9.184;2023-05-10T06:38:25;16.30;99.90
27741;DHT22;15134;48.768;9.184;2023-05-10T06:40:51;16.30;99.90
27741;DHT22;15134;48.768;9.184;2023-05-10T06:43:17;16.30;99.90
27741;DHT22;15134;48.768;9.184;2023-05-10T06:45:45;16.20;99.90
27741;DHT22;15134;48.768;9.184;2023-05-10T06:48:11;16.20;99.90
27741;DHT22;15134;48.768;9.184;2023-05-10T06:50:37;16.10;99.90
27741;DHT22;15134;48.768;9.184;2023-05-10T06:53:05;16.10;99.90
27741;DHT22;15134;48.768;9.184;2023-05-10T06:55:31;16.10;99.90
27741;DHT22;15134;48.768;9.184;2023-05-10T06:57:57;16.00;99.90
27741;DHT22;15134;48.768;9.184;2023-05-10T07:00:22;16.00;99.90
27741;DHT22;15134;48.768;9.184;2023-05-10T07:02:48;15.80;99.90
27741;DHT22;15134;48.768;9.184;2023-05-10T07:05:14;15.70;99.90
27741;DHT22;15134;48.768;9.184;2023-05-10T07:07:41;15.60;99.90
27741;DHT22;15134;48.768;9.184;2023-05-10T07:10:07;15.70;99.90
27741;DHT22;15134;48.768;9.184;2023-05-10T07:12:33;15.70;99.90
27741;DHT22;15134;48.768;9.184;2023-05-10T07:14:59;15.80;99.90
27741;DHT22;15134;48.768;9.184;2023-05-10T07:17:31;16.00;99.90
27741;DHT22;15134;48.768;9.184;2023-05-10T07:19:56;16.20;99.90
27741;DHT22;15134;48.768;9.184;2023-05-10T07:22:22;16.60;99.90
27741;DHT22;15134;48.768;9.184;2023-05-10T07:24:48;16.90;99.90
27741;DHT22;15134;48.768;9.184;2023-05-10T07:27:14;17.20;99.90
27741;DHT22;15134;48.768;9.184;2023-05-10T07:29:39;17.40;99.90
27741;DHT22;15134;48.768;9.184;2023-05-10T07:32:06;17.50;99.90
27741;DHT22;15134;48.768;9.184;2023-05-10T07:34:31;17.50;99.90
27741;DHT22;15134;48.768;9.184;2023-05-10T07:37:00;17.50;99.90
27741;DHT22;15134;48.768;9.184;2023-05-10T07:39:27;17.50;99.90
27741;DHT22;15134;48.768;9.184;2023-05-10T07:41:53;17.50;99.90
27741;DHT22;15134;48.768;9.184;2023-05-10T07:44:19;17.50;99.90
27741;DHT22;15134;48.768;9.184;2023-05-10T07:46:46;17.50;99.90
27741;DHT22;15134;48.768;9.184;2023-05-10T07:49:12;17.60;99.90
27741;DHT22;15134;48.768;9.184;2023-05-10T07:51:39;17.50;99.90
27741;DHT22;15134;48.768;9.184;2023-05-10T07:54:05;17.50;99.90
27741;DHT22;15134;48.768;9.184;2023-05-10T07:56:31;17.50;99.90
27741;DHT22;15134;48.768;9.184;2023-05-10T07:59:02;17.40;99.90
27741;DHT22;15134;48.768;9.184;2023-05-10T08:01:34;17.30;99.90
27741;DHT22;15134;48.768;9.184;2023-05-10T08:04:00;17.40;99.90
27741;DHT22;15134;48.768;9.184;2023-05-10T08:06:29;17.40;99.90
27741;DHT22;15134;48.768;9.184;2023-05-10T08:08:55;17.20;99.90
27741;DHT22;15134;48.768;9.184;2023-05-10T08:11:22;17.20;99.90
27741;DHT22;15134;48.768;9.184;2023-05-10T08:13:49;17.10;99.90
27741;DHT22;15134;48.768;9.184;2023-05-10T08:16:15;17.10;99.90
27741;DHT22;15134;48.768;9.184;2023-05-10T08:18:43;17.10;99.90
27741;DHT22;15134;48.768;9.184;2023-05-10T08:21:10;17.20;99.90
27741;DHT22;15134;48.768;9.184;2023-05-10T08:23:37;17.20;99.90
27741;DHT22;15134;48.768;9.184;2023-05-10T08:26:02;17.30;99.90
27741;DHT22;15134;48.768;9.184;2023-05-10T08:28:28;17.20;99.90
27741;DHT22;15134;48.768;9.184;2023-05-10T08:30:54;17.20;99.90
27741;DHT22;15134;48.768;9.184;2023-05-10T08:33:20;17.20;99.90
27741;DHT22;15134;48.768;9.184;2023-05-10T08:35:46;17.10;99.90
27741;DHT22;15134;48.768;9.184;2023-05-10T08:38:11;17.00;99.90
27741;DHT22;15134;48.768;9.184;2023-05-10T08:40:40;17.00;99.90
27741;DHT22;15134;48.768;9.184;2023-05-10T08:43:08;17.10;99.90
27741;DHT22;15134;48.768;9.184;2023-05-10T08:45:43;17.00;99.90
27741;DHT22;15134;48.768;9.184;2023-05-10T08:48:13;17.10;99.90
27741;DHT22;15134;48.768;9.184;2023-05-10T08:50:41;17.10;99.90
27741;DHT22;15134;48.768;9.184;2023-05-10T08:53:12;17.20;99.90
27741;DHT22;15134;48.768;9.184;2023-05-10T08:55:39;17.20;99.90
27741;DHT22;15134;48.768;9.184;2023-05-10T08:58:06;17.20;99.90
27741;DHT22;15134;48.768;9.184;2023-05-10T09:00:35;17.40;99.90
27741;DHT22;15134;48.768;9.184;2023-05-10T09:03:03;17.50;99.90
27741;DHT22;15134;48.768;9.184;2023-05-10T09:05:29;17.60;99.90
27741;DHT22;15134;48.768;9.184;2023-05-10T09:07:55;17.70;99.90
27741;DHT22;15134;48.768;9.184;2023-05-10T09:10:21;17.90;99.90
27741;DHT22;15134;48.768;9.184;2023-05-10T09:12:48;18.00;99.90
27741;DHT22;15134;48.768;9.184;2023-05-10T09:15:17;18.20;99.90
27741;DHT22;15134;48.768;9.184;2023-05-10T09:17:44;18.20;99.90
27741;DHT22;15134;48.768;9.184;2023-05-10T09:20:11;17.90;99.90
27741;DHT22;15134;48.768;9.184;2023-05-10T09:22:37;18.00;99.90
27741;DHT22;15134;48.768;9.184;2023-05-10T09:25:10;18.20;99.90
27741;DHT22;15134;48.768;9.184;2023-05-10T09:27:37;18.00;99.90
27741;DHT22;15134;48.768;9.184;2023-05-10T09:30:04;17.70;99.90
27741;DHT22;15134;48.768;9.184;2023-05-10T09:32:39;17.40;99.90
27741;DHT22;15134;48.768;9.184;2023-05-10T09:35:07;17.30;99.90
27741;DHT22;15134;48.768;9.184;2023-05-10T09:37:33;17.20;99.90
27741;DHT22;15134;48.768;9.184;2023-05-10T09:39:59;17.20;99.90
27741;DHT22;15134;48.768;9.184;2023-05-10T09:42:25;17.30;99.90
27741;DHT22;15134;48.768;9.184;2023-05-10T09:45:01;17.40;99.90
27741;DHT22;15134;48.768;9.184;2023-05-10T09:47:27;17.60;99.90
27741;DHT22;15134;48.768;9.184;2023-05-10T09:49:53;17.80;99.90
27741;DHT22;15134;48.768;9.184;2023-05-10T09:52:23;18.00;99.90
27741;DHT22;15134;48.768;9.184;2023-05-10T09:54:54;18.10;99.90
27741;DHT22;15134;48.768;9.184;2023-05-10T09:57:21;18.30;99.90
27741;DHT22;15134;48.768;9.184;2023-05-10T09:59:48;18.50;99.90
27741;DHT22;15134;48.768;9.184;2023-05-10T10:02:14;18.70;99.90
27741;DHT22;15134;48.768;9.184;2023-05-10T10:04:40;18.60;99.90
27741;DHT22;15134;48.768;9.184;2023-05-10T10:07:07;18.80;99.90
27741;DHT22;15134;48.768;9.184;2023-05-10T10:09:34;18.90;99.90
27741;DHT22;15134;48.768;9.184;2023-05-10T10:12:01;18.80;99.90
27741;DHT22;15134;48.768;9.184;2023-05-10T10:14:28;18.60;99.90
27741;DHT22;15134;48.768;9.184;2023-05-10T10:16:54;18.60;99.90
27741;DHT22;15134;48.768;9.184;2023-05-10T10:19:20;18.20;99.90
27741;DHT22;15134;48.768;9.184;2023-05-10T10:21:49;18.00;99.90
27741;DHT22;15134;48.768;9.184;2023-05-10T10:24:15;18.00;99.90
27741;DHT22;15134;48.768;9.184;2023-05-10T10:26:42;17.90;99.90
27741;DHT22;15134;48.768;9.184;2023-05-10T10:34:34;17.90;99.90
27741;DHT22;15134;48.768;9.184;2023-05-10T10:37:06;17.80;99.90
27741;DHT22;15134;48.768;9.184;2023-05-10T10:39:32;17.80;99.90
27741;DHT22;15134;48.768;9.184;2023-05-10T10:41:58;17.80;99.90
27741;DHT22;15134;48.768;9.184;2023-05-10T10:52:28;18.10;99.90
27741;DHT22;15134;48.768;9.184;2023-05-10T10:55:08;17.90;99.90
27741;DHT22;15134;48.768;9.184;2023-05-10T11:00:28;17.10;99.90
27741;DHT22;15134;48.768;9.184;2023-05-10T11:05:46;16.70;99.90
27741;DHT22;15134;48.768;9.184;2023-05-10T11:11:17;16.20;99.90
27741;DHT22;15134;48.768;9.184;2023-05-10T11:13:45;16.30;99.90
27741;DHT22;15134;48.768;9.184;2023-05-10T11:19:02;16.50;99.90
27741;DHT22;15134;48.768;9.184;2023-05-10T11:21:33;16.50;99.90
27741;DHT22;15134;48.768;9.184;2023-05-10T11:24:01;16.60;99.90
27741;DHT22;15134;48.768;9.184;2023-05-10T11:26:33;16.60;99.90
27741;DHT22;15134;48.768;9.184;2023-05-10T11:28:59;16.60;99.90
27741;DHT22;15134;48.768;9.184;2023-05-10T11:31:27;16.60;99.90
27741;DHT22;15134;48.768;9.184;2023-05-10T11:33:55;16.60;99.90
27741;DHT22;15134;48.768;9.184;2023-05-10T11:36:25;16.60;99.90
27741;DHT22;15134;48.768;9.184;2023-05-10T11:38:51;16.70;99.90
27741;DHT22;15134;48.768;9.184;2023-05-10T11:41:19;16.80;99.90
27741;DHT22;15134;48.768;9.184;2023-05-10T11:43:49;17.00;99.90
27741;DHT22;15134;48.768;9.184;2023-05-10T11:46:20;17.20;99.90
27741;DHT22;15134;48.768;9.184;2023-05-10T11:48:49;17.30;99.90
27741;DHT22;15134;48.768;9.184;2023-05-10T11:51:23;17.40;99.90
27741;DHT22;15134;48.768;9.184;2023-05-10T11:53:52;17.40;99.90
27741;DHT22;15134;48.768;9.184;2023-05-10T11:56:21;17.50;99.90
27741;DHT22;15134;48.768;9.184;2023-05-10T11:58:57;17.50;99.90
27741;DHT22;15134;48.768;9.184;2023-05-10T12:01:24;17.40;99.90
27741;DHT22;15134;48.768;9.184;2023-05-10T12:03:55;17.40;99.90
27741;DHT22;15134;48.768;9.184;2023-05-10T12:06:26;17.20;99.90
27741;DHT22;15134;48.768;9.184;2023-05-10T12:08:52;17.20;99.90
27741;DHT22;15134;48.768;9.184;2023-05-10T12:11:19;17.10;99.90
27741;DHT22;15134;48.768;9.184;2023-05-10T12:13:47;17.10;99.90
27741;DHT22;15134;48.768;9.184;2023-05-10T12:16:21;17.10;99.90
27741;DHT22;15134;48.768;9.184;2023-05-10T12:18:51;17.20;99.90
27741;DHT22;15134;48.768;9.184;2023-05-10T12:21:18;17.30;99.90
27741;DHT22;15134;48.768;9.184;2023-05-10T12:23:53;17.30;99.90
27741;DHT22;15134;48.768;9.184;2023-05-10T12:26:22;17.30;99.90
27741;DHT22;15134;48.768;9.184;2023-05-10T12:28:49;17.40;99.90
27741;DHT22;15134;48.768;9.184;2023-05-10T12:31:15;17.40;99.90
27741;DHT22;15134;48.768;9.184;2023-05-10T12:33:43;17.60;99.90
27741;DHT22;15134;48.768;9.184;2023-05-10T12:36:10;17.60;99.90
27741;DHT22;15134;48.768;9.184;2023-05-10T12:38:38;17.60;99.90
27741;DHT22;15134;48.768;9.184;2023-05-10T12:41:12;17.40;99.90
27741;DHT22;15134;48.768;9.184;2023-05-10T12:43:39;17.40;99.90
27741;DHT22;15134;48.768;9.184;2023-05-10T12:46:13;17.60;99.90
27741;DHT22;15134;48.768;9.184;2023-05-10T12:48:41;17.70;99.90
27741;DHT22;15134;48.768;9.184;2023-05-10T12:51:08;17.80;99.90
27741;DHT22;15134;48.768;9.184;2023-05-10T12:53:35;17.80;99.90
27741;DHT22;15134;48.768;9.184;2023-05-10T12:56:01;17.80;99.90
27741;DHT22;15134;48.768;9.184;2023-05-10T12:58:28;17.80;99.90
27741;DHT22;15134;48.768;9.184;2023-05-10T13:00:53;17.70;99.90
27741;DHT22;15134;48.768;9.184;2023-05-10T13:03:22;17.60;99.90
27741;DHT22;15134;48.768;9.184;2023-05-10T13:05:47;17.40;99.90
27741;DHT22;15134;48.768;9.184;2023-05-10T13:08:14;17.20;99.90
27741;DHT22;15134;48.768;9.184;2023-05-10T13:10:40;17.20;99.90
27741;DHT22;15134;48.768;9.184;2023-05-10T13:13:06;17.00;99.90
27741;DHT22;15134;48.768;9.184;2023-05-10T13:15:34;16.80;99.90
27741;DHT22;15134;48.768;9.184;2023-05-10T13:18:02;16.70;99.90
27741;DHT22;15134;48.768;9.184;2023-05-10T13:20:50;16.70;99.90
27741;DHT22;15134;48.768;9.184;2023-05-10T13:23:16;16.70;99.90
27741;DHT22;15134;48.768;9.184;2023-05-10T13:25:41;16.80;99.90
27741;DHT22;15134;48.768;9.184;2023-05-10T13:28:07;17.00;99.90
27741;DHT22;15134;48.768;9.184;2023-05-10T13:30:33;17.20;99.90
27741;DHT22;15134;48.768;9.184;2023-05-10T13:33:03;17.50;99.90
27741;DHT22;15134;48.768;9.184;2023-05-10T13:35:28;17.60;99.90
27741;DHT22;15134;48.768;9.184;2023-05-10T13:37:54;17.70;99.90
27741;DHT22;15134;48.768;9.184;2023-05-10T13:40:25;17.70;99.90
27741;DHT22;15134;48.768;9.184;2023-05-10T13:42:54;17.50;99.90
27741;DHT22;15134;48.768;9.184;2023-05-10T13:45:20;17.50;99.90
27741;DHT22;15134;48.768;9.184;2023-05-10T13:47:54;17.60;99.90
27741;DHT22;15134;48.768;9.184;2023-05-10T13:50:21;17.60;99.90
27741;DHT22;15134;48.768;9.184;2023-05-10T13:52:47;17.70;99.90
27741;DHT22;15134;48.768;9.184;2023-05-10T13:55:13;17.70;99.90
27741;DHT22;15134;48.768;9.184;2023-05-10T13:57:39;17.60;99.90
27741;DHT22;15134;48.768;9.184;2023-05-10T14:00:05;17.60;99.90
27741;DHT22;15134;48.768;9.184;2023-05-10T14:02:33;17.70;99.90
27741;DHT22;15134;48.768;9.184;2023-05-10T14:05:02;17.90;99.90
27741;DHT22;15134;48.768;9.184;2023-05-10T14:07:28;17.90;99.90
27741;DHT22;15134;48.768;9.184;2023-05-10T14:09:54;18.00;99.90
27741;DHT22;15134;48.768;9.184;2023-05-10T14:12:20;18.10;99.90
27741;DHT22;15134;48.768;9.184;2023-05-10T14:14:46;18.10;99.90
27741;DHT22;15134;48.768;9.184;2023-05-10T14:17:12;18.20;99.90
27741;DHT22;15134;48.768;9.184;2023-05-10T14:19:37;18.10;99.90
27741;DHT22;15134;48.768;9.184;2023-05-10T14:22:07;18.00;99.90
27741;DHT22;15134;48.768;9.184;2023-05-10T14:24:33;18.00;99.90
27741;DHT22;15134;48.768;9.184;2023-05-10T14:26:58;17.80;99.90
27741;DHT22;15134;48.768;9.184;2023-05-10T14:29:24;17.90;99.90
27741;DHT22;15134;48.768;9.184;2023-05-10T14:31:50;17.90;99.90
27741;DHT22;15134;48.768;9.184;2023-05-10T14:34:16;17.80;99.90
27741;DHT22;15134;48.768;9.184;2023-05-10T14:36:42;17.80;99.90
27741;DHT22;15134;48.768;9.184;2023-05-10T14:39:07;17.90;99.90
27741;DHT22;15134;48.768;9.184;2023-05-10T14:41:35;18.00;99.90
27741;DHT22;15134;48.768;9.184;2023-05-10T14:44:01;18.10;99.90
27741;DHT22;15134;48.768;9.184;2023-05-10T14:46:29;18.00;99.90
27741;DHT22;15134;48.768;9.184;2023-05-10T14:48:55;18.10;99.90
27741;DHT22;15134;48.768;9.184;2023-05-10T14:51:21;18.20;99.90
27741;DHT22;15134;48.768;9.184;2023-05-10T14:53:48;18.20;99.90
27741;DHT22;15134;48.768;9.184;2023-05-10T14:56:15;18.30;99.90
27741;DHT22;15134;48.768;9.184;2023-05-10T14:58:41;18.20;99.90
27741;DHT22;15134;48.768;9.184;2023-05-10T15:01:06;18.10;99.90
27741;DHT22;15134;48.768;9.184;2023-05-10T15:03:32;18.00;99.90
27741;DHT22;15134;48.768;9.184;2023-05-10T15:05:58;17.80;99.90
27741;DHT22;15134;48.768;9.184;2023-05-10T15:08:24;17.80;99.90
27741;DHT22;15134;48.768;9.184;2023-05-10T15:10:50;17.90;99.90
27741;DHT22;15134;48.768;9.184;2023-05-10T15:13:19;18.00;99.90
27741;DHT22;15134;48.768;9.184;2023-05-10T15:15:44;17.90;99.90
27741;DHT22;15134;48.768;9.184;2023-05-10T15:18:11;17.90;99.90
27741;DHT22;15134;48.768;9.184;2023-05-10T15:20:37;17.80;99.90
27741;DHT22;15134;48.768;9.184;2023-05-10T15:23:02;17.80;99.90
27741;DHT22;15134;48.768;9.184;2023-05-10T15:25:28;17.80;99.90
27741;DHT22;15134;48.768;9.184;2023-05-10T15:27:55;17.80;99.90
27741;DHT22;15134;48.768;9.184;2023-05-10T15:30:23;17.90;99.90
27741;DHT22;15134;48.768;9.184;2023-05-10T15:32:49;17.80;99.90
27741;DHT22;15134;48.768;9.184;2023-05-10T15:35:15;17.70;99.90
27741;DHT22;15134;48.768;9.184;2023-05-10T15:37:41;17.80;99.90
27741;DHT22;15134;48.768;9.184;2023-05-10T15:40:07;17.80;99.90
27741;DHT22;15134;48.768;9.184;2023-05-10T15:42:33;17.90;99.90
27741;DHT22;15134;48.768;9.184;2023-05-10T15:44:58;18.00;99.90
27741;DHT22;15134;48.768;9.184;2023-05-10T15:47:26;18.00;99.90
27741;DHT22;15134;48.768;9.184;2023-05-10T15:49:55;17.90;99.90
27741;DHT22;15134;48.768;9.184;2023-05-10T15:52:21;17.90;99.90
27741;DHT22;15134;48.768;9.184;2023-05-10T15:54:48;17.90;99.90
27741;DHT22;15134;48.768;9.184;2023-05-10T15:57:14;17.90;99.90
27741;DHT22;15134;48.768;9.184;2023-05-10T15:59:40;17.90;99.90
27741;DHT22;15134;48.768;9.184;2023-05-10T16:02:10;17.80;99.90
27741;DHT22;15134;48.768;9.184;2023-05-10T16:04:36;17.70;99.90
27741;DHT22;15134;48.768;9.184;2023-05-10T16:07:02;17.70;99.90
27741;DHT22;15134;48.768;9.184;2023-05-10T16:09:29;17.70;99.90
27741;DHT22;15134;48.768;9.184;2023-05-10T16:11:55;17.80;99.90